Time;durP1;ratioP1;P1;durP2;ratioP2;P2;SDS_P1;SDS_P2;PMS_P1;PMS_P2;Temp;Humidity;BMP_temperature;BMP_pressure;BME280_temperature;BME280_humidity;BME280_pressure;Samples;Min_cycle;Max_cycle;Signal;HPM_P1;HPM_P2
2022/01/04 00:01:36;;;;;;;6.22;5.63;;;27.90;53.90;;;;;;5025994;28;20321;-40
2022/01/04 00:04:07;;;;;;;6.28;5.75;;;28.00;53.90;;;;;;5026953;28;20666;-40
2022/01/04 00:06:37;;;;;;;6.07;5.47;;;28.00;53.80;;;;;;5026637;28;20285;-40
2022/01/04 00:09:08;;;;;;;7.05;5.97;;;28.10;53.90;;;;;;5026095;28;20291;-44
2022/01/04 00:13:20;;;;;;;6.47;5.85;;;28.10;54.10;;;;;;5024874;28;20228;-40
2022/01/04 00:14:38;;;;;;;6.50;5.75;;;28.10;53.80;;;;;;5025563;28;20595;-56
2022/01/04 00:17:08;;;;;;;6.35;5.75;;;28.20;53.70;;;;;;5025994;28;20299;-47
2022/01/04 00:19:39;;;;;;;5.75;5.32;;;28.20;53.70;;;;;;5024347;28;20311;-49
2022/01/04 00:22:10;;;;;;;6.45;5.40;;;28.20;53.70;;;;;;5023542;28;20291;-45
2022/01/04 00:24:40;;;;;;;6.22;5.35;;;28.20;53.50;;;;;;5027666;28;20231;-43
2022/01/04 00:27:11;;;;;;;6.50;4.72;;;28.20;52.90;;;;;;5026620;28;20755;-46
2022/01/04 00:29:43;;;;;;;6.75;5.40;;;28.20;52.80;;;;;;5026825;28;20299;-41
2022/01/04 00:32:13;;;;;;;7.55;4.95;;;28.20;52.90;;;;;;5026681;28;20303;-44
2022/01/04 00:34:44;;;;;;;5.45;4.55;;;28.10;52.70;;;;;;5024950;28;20283;-40
2022/01/04 00:37:14;;;;;;;6.80;4.60;;;28.10;52.60;;;;;;5024898;28;21476;-46
2022/01/04 00:39:45;;;;;;;7.00;4.20;;;28.10;52.60;;;;;;5023865;28;20234;-51
2022/01/04 00:42:15;;;;;;;5.68;4.07;;;28.00;52.80;;;;;;5024838;28;20242;-49
2022/01/04 00:44:48;;;;;;;5.43;4.05;;;28.00;52.70;;;;;;5023832;28;20299;-48
2022/01/04 00:47:25;;;;;;;4.53;3.70;;;27.90;52.90;;;;;;5023403;28;20292;-42
2022/01/04 00:49:54;;;;;;;4.75;3.97;;;27.90;52.80;;;;;;5024675;28;20219;-40
2022/01/04 00:52:24;;;;;;;5.20;4.00;;;27.80;52.70;;;;;;5025599;28;20200;-46
2022/01/04 00:54:55;;;;;;;7.07;4.13;;;27.80;52.90;;;;;;5027191;28;20283;-45
2022/01/04 00:57:25;;;;;;;11.20;4.10;;;27.70;52.90;;;;;;5024727;28;20724;-48
2022/01/04 00:59:57;;;;;;;8.55;4.40;;;27.70;52.90;;;;;;5024757;28;20747;-50
2022/01/04 01:02:28;;;;;;;8.98;4.00;;;27.70;52.90;;;;;;5021308;28;20732;-51
2022/01/04 01:04:58;;;;;;;5.13;4.10;;;27.70;53.10;;;;;;5023597;28;20284;-45
2022/01/04 01:07:29;;;;;;;6.10;4.28;;;27.70;53.00;;;;;;5024673;28;20514;-47
2022/01/04 01:10:10;;;;;;;7.20;4.13;;;27.50;53.50;;;;;;5023783;28;20307;-44
2022/01/04 01:12:41;;;;;;;9.65;4.10;;;27.50;53.10;;;;;;5025249;28;20204;-45
2022/01/04 01:15:14;;;;;;;4.93;4.32;;;27.50;53.40;;;;;;5026462;28;20209;-44
2022/01/04 01:17:44;;;;;;;7.70;4.50;;;27.50;53.20;;;;;;5027863;28;20291;-44
2022/01/04 01:20:16;;;;;;;5.13;4.40;;;27.50;53.50;;;;;;5025668;28;20299;-50
2022/01/04 01:22:46;;;;;;;10.15;4.38;;;27.50;53.70;;;;;;5013836;28;20208;-46
2022/01/04 01:25:17;;;;;;;5.45;4.13;;;27.50;53.60;;;;;;5025555;28;20204;-43
2022/01/04 01:27:47;;;;;;;9.15;4.45;;;27.50;53.40;;;;;;5024172;28;20282;-47
2022/01/04 01:30:20;;;;;;;8.05;4.47;;;27.40;53.20;;;;;;5023357;28;20653;-38
2022/01/04 01:32:51;;;;;;;5.95;4.75;;;27.40;53.30;;;;;;5023908;28;20254;-44
2022/01/04 01:35:22;;;;;;;5.47;4.50;;;27.50;53.40;;;;;;5023261;28;20607;-46
2022/01/04 01:37:52;;;;;;;6.47;4.53;;;27.50;53.50;;;;;;5024320;28;20196;-43
2022/01/04 01:40:23;;;;;;;4.70;4.03;;;27.50;53.60;;;;;;5025795;28;20216;-50
2022/01/04 01:42:53;;;;;;;4.90;4.50;;;27.50;53.70;;;;;;5025333;28;20208;-39
2022/01/04 01:45:26;;;;;;;5.03;4.45;;;27.60;53.80;;;;;;5023976;28;20204;-41
2022/01/04 01:47:57;;;;;;;5.43;4.85;;;27.60;53.90;;;;;;5021148;28;20200;-39
2022/01/04 01:50:28;;;;;;;4.93;4.32;;;27.60;53.80;;;;;;5023689;28;20299;-39
2022/01/04 01:53:01;;;;;;;6.00;4.72;;;27.70;53.80;;;;;;5023516;28;20236;-39
2022/01/04 01:55:32;;;;;;;5.25;4.65;;;27.80;53.80;;;;;;5026133;28;22061;-45
2022/01/04 01:58:06;;;;;;;5.20;4.65;;;27.80;53.80;;;;;;5027529;28;20243;-39
2022/01/04 02:00:38;;;;;;;5.18;4.68;;;27.80;53.70;;;;;;5027692;28;20231;-44
2022/01/04 02:03:09;;;;;;;5.03;4.40;;;27.90;53.70;;;;;;5029899;28;20255;-45
2022/01/04 02:05:40;;;;;;;6.53;4.68;;;27.90;53.00;;;;;;5028514;28;20200;-43
2022/01/04 02:08:12;;;;;;;5.28;3.88;;;27.90;52.00;;;;;;5029501;28;20227;-39
2022/01/04 02:10:43;;;;;;;9.10;4.40;;;27.80;52.20;;;;;;5026246;28;20220;-37
2022/01/04 02:13:14;;;;;;;5.32;4.28;;;27.70;52.30;;;;;;5028641;28;20235;-42
2022/01/04 02:15:46;;;;;;;6.55;4.20;;;27.60;52.30;;;;;;5022428;28;20292;-39
2022/01/04 02:18:17;;;;;;;5.47;4.53;;;27.60;52.30;;;;;;5024507;28;20690;-44
2022/01/04 02:20:52;;;;;;;5.93;4.22;;;27.60;52.30;;;;;;5027748;28;20217;-45
2022/01/04 02:23:22;;;;;;;5.63;4.88;;;27.50;52.30;;;;;;5027131;28;20265;-44
2022/01/04 02:25:53;;;;;;;9.77;4.65;;;27.40;52.60;;;;;;5028719;28;20228;-50
2022/01/04 02:28:24;;;;;;;7.50;4.70;;;27.40;52.80;;;;;;5029319;28;20196;-50
2022/01/04 02:30:55;;;;;;;6.13;4.65;;;27.30;53.00;;;;;;5027829;28;20594;-46
2022/01/04 02:33:26;;;;;;;4.50;4.10;;;27.20;53.00;;;;;;5025813;28;20239;-46
2022/01/04 02:35:58;;;;;;;5.80;4.57;;;27.20;53.20;;;;;;5025464;28;20208;-50
2022/01/04 02:38:28;;;;;;;5.35;4.72;;;27.10;53.50;;;;;;5028111;28;20227;-45
2022/01/04 02:40:59;;;;;;;4.95;4.55;;;27.10;53.50;;;;;;5026287;28;20216;-41
2022/01/04 02:43:30;;;;;;;5.63;4.93;;;27.10;53.60;;;;;;5026385;28;20208;-43
2022/01/04 02:46:00;;;;;;;7.10;4.68;;;27.00;53.60;;;;;;5028194;28;20279;-43
2022/01/04 02:48:31;;;;;;;6.22;4.38;;;27.00;53.80;;;;;;5026500;28;20416;-39
2022/01/04 02:51:03;;;;;;;6.15;4.35;;;26.90;53.80;;;;;;5028319;28;20243;-48
2022/01/04 02:53:34;;;;;;;5.53;4.85;;;26.90;53.90;;;;;;5026664;28;21541;-47
2022/01/04 02:56:04;;;;;;;5.72;4.93;;;26.90;54.00;;;;;;5025742;28;20243;-42
2022/01/04 02:58:35;;;;;;;5.07;4.57;;;26.80;54.00;;;;;;5025772;28;20228;-41
2022/01/04 03:01:06;;;;;;;8.00;4.40;;;26.80;54.20;;;;;;5026285;28;20332;-47
2022/01/04 03:03:37;;;;;;;5.63;5.10;;;26.80;54.30;;;;;;5027809;28;20202;-41
2022/01/04 03:06:09;;;;;;;6.78;5.10;;;26.80;54.40;;;;;;5026580;28;20204;-43
2022/01/04 03:08:40;;;;;;;6.68;4.70;;;26.80;54.50;;;;;;5027412;28;20636;-45
2022/01/04 03:11:10;;;;;;;5.68;4.85;;;26.80;54.50;;;;;;5026556;28;20754;-45
2022/01/04 03:13:41;;;;;;;5.15;4.65;;;26.70;54.50;;;;;;5027748;28;20470;-46
2022/01/04 03:16:12;;;;;;;7.13;5.03;;;26.80;55.10;;;;;;5026521;28;20239;-46
2022/01/04 03:19:01;;;;;;;6.35;4.50;;;26.70;55.00;;;;;;5025865;28;20224;-47
2022/01/04 03:21:34;;;;;;;7.13;5.00;;;26.70;54.90;;;;;;5025898;28;20712;-48
2022/01/04 03:24:05;;;;;;;7.40;4.85;;;26.70;54.80;;;;;;5026533;28;20242;-44
2022/01/04 03:26:37;;;;;;;5.07;4.60;;;26.70;55.00;;;;;;5026186;28;20291;-44
2022/01/04 03:29:11;;;;;;;5.90;4.72;;;26.80;55.20;;;;;;5027113;28;20196;-41
2022/01/04 03:31:41;;;;;;;4.82;4.22;;;26.70;55.10;;;;;;5027067;28;20769;-50
2022/01/04 03:34:12;;;;;;;5.30;4.80;;;26.80;54.90;;;;;;5028184;28;20235;-52
2022/01/04 03:36:45;;;;;;;5.97;5.22;;;26.80;55.10;;;;;;5027624;28;20204;-44
2022/01/04 03:39:16;;;;;;;8.10;4.88;;;26.70;55.10;;;;;;5027521;28;20691;-47
2022/01/04 03:41:47;;;;;;;6.85;4.63;;;26.70;55.00;;;;;;5026683;28;20313;-48
2022/01/04 03:44:20;;;;;;;4.97;4.20;;;26.70;55.00;;;;;;5027211;28;20790;-48
2022/01/04 03:46:51;;;;;;;6.75;4.85;;;26.70;55.10;;;;;;5025762;28;20287;-52
2022/01/04 03:49:22;;;;;;;7.88;4.93;;;26.70;54.90;;;;;;5026161;28;20247;-46
2022/01/04 03:51:54;;;;;;;6.43;4.75;;;26.80;54.60;;;;;;5025372;28;20655;-50
2022/01/04 03:54:25;;;;;;;7.30;4.93;;;26.70;54.40;;;;;;5025353;28;20208;-47
2022/01/04 03:56:56;;;;;;;5.57;4.47;;;26.80;54.50;;;;;;5025382;28;20663;-47
2022/01/04 03:59:29;;;;;;;7.03;4.43;;;26.80;54.80;;;;;;5027875;28;20503;-47
2022/01/04 04:01:59;;;;;;;5.57;4.40;;;26.70;54.80;;;;;;5026214;28;20250;-45
2022/01/04 04:04:29;;;;;;;5.28;4.68;;;26.70;54.70;;;;;;5027369;28;20235;-45
2022/01/04 04:07:02;;;;;;;7.60;4.72;;;26.70;54.80;;;;;;5024675;28;20239;-51
2022/01/04 04:09:34;;;;;;;5.07;4.57;;;26.70;54.30;;;;;;5025209;28;20282;-43
2022/01/04 04:12:05;;;;;;;6.32;5.00;;;26.80;54.30;;;;;;5025060;28;20402;-48
2022/01/04 04:14:36;;;;;;;5.60;4.57;;;26.70;54.20;;;;;;5025401;28;20283;-50
2022/01/04 04:17:06;;;;;;;5.28;4.75;;;26.80;54.20;;;;;;5021211;28;20599;-39
2022/01/04 04:19:37;;;;;;;4.53;4.22;;;26.80;54.20;;;;;;5022815;28;20311;-48
2022/01/04 04:22:12;;;;;;;5.10;4.40;;;26.80;54.10;;;;;;5024127;28;20300;-46
2022/01/04 04:24:44;;;;;;;5.45;4.47;;;26.80;54.10;;;;;;5027043;28;20278;-44
2022/01/04 04:27:15;;;;;;;5.40;4.70;;;26.80;54.20;;;;;;5027589;28;21242;-42
2022/01/04 04:29:45;;;;;;;6.53;4.45;;;26.80;54.50;;;;;;5024763;28;20303;-43
2022/01/04 04:32:16;;;;;;;4.70;4.20;;;26.80;54.40;;;;;;5025261;28;20228;-40
2022/01/04 04:34:46;;;;;;;4.60;4.20;;;26.80;54.20;;;;;;5024843;28;20291;-44
2022/01/04 04:37:19;;;;;;;5.05;4.55;;;26.90;54.20;;;;;;5024379;28;20618;-48
2022/01/04 04:39:49;;;;;;;4.95;4.55;;;26.80;54.10;;;;;;5026361;28;20247;-45
2022/01/04 04:42:20;;;;;;;5.88;4.43;;;26.80;54.20;;;;;;5025379;28;20230;-48
2022/01/04 04:44:50;;;;;;;6.53;4.43;;;26.80;53.90;;;;;;5026385;28;20224;-44
2022/01/04 04:47:20;;;;;;;4.55;4.07;;;26.80;53.80;;;;;;5025760;28;20292;-50
2022/01/04 04:49:52;;;;;;;6.28;4.43;;;26.80;53.80;;;;;;5025452;28;20940;-40
2022/01/04 04:52:25;;;;;;;4.75;4.10;;;26.80;53.90;;;;;;5023441;28;20200;-47
2022/01/04 04:54:55;;;;;;;4.85;4.38;;;26.80;53.60;;;;;;5024840;28;20641;-41
2022/01/04 04:57:26;;;;;;;6.10;4.18;;;26.80;53.60;;;;;;5025554;28;20283;-40
2022/01/04 04:59:56;;;;;;;4.63;4.05;;;26.70;53.40;;;;;;5024013;28;20247;-41
2022/01/04 05:02:27;;;;;;;5.03;4.55;;;26.70;53.10;;;;;;5023758;28;20328;-46
2022/01/04 05:04:57;;;;;;;5.05;4.13;;;26.70;52.90;;;;;;5023777;28;20748;-42
2022/01/04 05:07:29;;;;;;;5.60;4.43;;;26.70;53.60;;;;;;5024755;28;20288;-48
2022/01/04 05:10:00;;;;;;;5.25;4.15;;;26.60;52.80;;;;;;5025006;28;20299;-48
2022/01/04 05:12:30;;;;;;;6.35;4.35;;;26.60;52.90;;;;;;5025751;28;20227;-46
2022/01/04 05:15:01;;;;;;;5.88;4.28;;;26.60;53.00;;;;;;5025657;28;20687;-47
2022/01/04 05:17:31;;;;;;;5.15;4.20;;;26.60;53.00;;;;;;5023698;28;21652;-45
2022/01/04 05:20:02;;;;;;;4.82;4.35;;;26.60;53.10;;;;;;5023786;28;20354;-44
2022/01/04 05:22:35;;;;;;;5.65;4.22;;;26.60;53.20;;;;;;5025469;28;20228;-48
2022/01/04 05:25:05;;;;;;;7.55;4.43;;;26.60;53.30;;;;;;5023579;28;20631;-46
2022/01/04 05:27:36;;;;;;;4.35;3.90;;;26.60;53.50;;;;;;5023329;28;20280;-46
2022/01/04 05:30:07;;;;;;;4.40;3.80;;;26.60;53.20;;;;;;5028208;28;20307;-48
2022/01/04 05:32:38;;;;;;;5.32;4.15;;;26.60;53.10;;;;;;5029150;28;20271;-49
2022/01/04 05:35:09;;;;;;;7.20;4.53;;;26.50;52.80;;;;;;5028781;28;20206;-46
2022/01/04 05:37:41;;;;;;;6.07;4.43;;;26.50;52.80;;;;;;5027393;28;20278;-51
2022/01/04 05:40:13;;;;;;;5.68;4.35;;;26.50;53.00;;;;;;5028243;28;20665;-49
2022/01/04 05:42:43;;;;;;;5.80;4.35;;;26.50;53.20;;;;;;5027644;28;21399;-45
2022/01/04 05:45:14;;;;;;;7.50;3.95;;;26.50;53.20;;;;;;5027218;28;20255;-50
2022/01/04 05:47:44;;;;;;;4.55;4.13;;;26.50;53.20;;;;;;5028078;28;20287;-45
2022/01/04 05:50:15;;;;;;;4.68;4.28;;;26.50;53.00;;;;;;5027618;28;20303;-51
2022/01/04 05:52:47;;;;;;;5.47;4.50;;;26.40;53.20;;;;;;5029037;28;20279;-51
2022/01/04 05:55:17;;;;;;;5.63;4.20;;;26.40;53.40;;;;;;5029391;28;20280;-46
2022/01/04 05:57:48;;;;;;;6.95;4.07;;;26.40;53.30;;;;;;5028349;28;20315;-46
2022/01/04 06:00:19;;;;;;;6.60;4.40;;;26.40;53.40;;;;;;5027614;28;20351;-46
2022/01/04 06:02:50;;;;;;;6.15;4.13;;;26.50;53.70;;;;;;5026678;28;20624;-50
2022/01/04 06:05:20;;;;;;;6.38;4.30;;;26.50;53.50;;;;;;5025413;28;20239;-44
2022/01/04 06:07:53;;;;;;;5.30;4.30;;;26.50;53.30;;;;;;5017797;28;20724;-47
2022/01/04 06:10:23;;;;;;;5.25;4.15;;;26.40;52.90;;;;;;5026746;28;20307;-43
2022/01/04 06:15:40;;;;;;;5.50;4.47;;;26.40;53.10;;;;;;5026904;28;20254;-47
2022/01/04 06:18:11;;;;;;;5.13;3.85;;;26.30;53.30;;;;;;5027502;28;20227;-44
2022/01/04 06:20:41;;;;;;;5.57;4.63;;;26.30;53.50;;;;;;5027668;28;20231;-49
2022/01/04 06:23:14;;;;;;;5.53;4.28;;;26.20;53.50;;;;;;5027729;28;20208;-49
2022/01/04 06:25:44;;;;;;;6.72;4.68;;;26.10;53.70;;;;;;5025151;28;20283;-47
2022/01/04 06:28:15;;;;;;;5.18;4.75;;;26.10;53.70;;;;;;5027151;28;20201;-45
2022/01/04 06:30:46;;;;;;;4.90;4.43;;;26.10;53.80;;;;;;5026769;28;20301;-48
2022/01/04 06:33:16;;;;;;;5.38;4.28;;;26.10;53.80;;;;;;5027914;28;20283;-45
2022/01/04 06:35:47;;;;;;;5.32;4.30;;;26.10;53.90;;;;;;5025284;28;20292;-46
2022/01/04 06:38:19;;;;;;;5.75;4.65;;;26.10;53.90;;;;;;5016236;28;20300;-57
2022/01/04 06:40:49;;;;;;;4.90;4.32;;;26.20;54.00;;;;;;5026970;28;20311;-53
2022/01/04 06:43:20;;;;;;;5.38;4.70;;;26.20;53.90;;;;;;5028509;28;20691;-40
2022/01/04 06:45:50;;;;;;;5.40;4.90;;;26.30;53.90;;;;;;5025266;28;20291;-56
2022/01/04 06:48:21;;;;;;;5.28;4.68;;;26.40;54.00;;;;;;5026287;28;20295;-49
2022/01/04 06:50:51;;;;;;;5.38;4.88;;;26.40;53.90;;;;;;5026251;28;20312;-41
2022/01/04 06:53:23;;;;;;;6.13;4.90;;;26.40;53.80;;;;;;5027065;28;20204;-50
2022/01/04 06:56:03;;;;;;;4.78;4.38;;;26.50;53.80;;;;;;5025630;28;20288;-46
2022/01/04 07:02:17;;;;;;;5.28;4.88;;;26.60;53.60;;;;;;4943659;29;20199;-51
2022/01/04 07:04:48;;;;;;;5.15;4.75;;;26.70;53.50;;;;;;4944031;29;20327;-52
2022/01/04 07:07:18;;;;;;;5.35;4.85;;;26.70;53.40;;;;;;4940734;29;20242;-50
2022/01/04 07:09:51;;;;;;;5.03;4.35;;;26.80;53.40;;;;;;4933181;28;20290;-51
2022/01/04 07:12:21;;;;;;;4.60;4.30;;;26.80;53.40;;;;;;4940410;29;20306;-54
2022/01/04 07:14:53;;;;;;;5.50;4.90;;;26.90;53.40;;;;;;4948051;29;20686;-48
2022/01/04 07:17:24;;;;;;;4.90;4.50;;;26.90;53.30;;;;;;4946477;29;20286;-60
2022/01/04 07:19:54;;;;;;;5.00;4.60;;;26.90;53.30;;;;;;4947063;28;20227;-47
2022/01/04 07:22:25;;;;;;;5.20;4.68;;;26.90;53.20;;;;;;4944561;29;20289;-42
2022/01/04 07:24:57;;;;;;;5.72;5.00;;;27.00;53.30;;;;;;4943858;29;20286;-50
2022/01/04 07:27:28;;;;;;;6.05;5.38;;;27.00;53.30;;;;;;4943563;29;20285;-53
2022/01/04 07:29:58;;;;;;;5.53;4.97;;;27.00;53.20;;;;;;4944322;28;20289;-57
2022/01/04 07:32:29;;;;;;;5.60;5.15;;;27.10;53.20;;;;;;4944542;29;20726;-49
2022/01/04 07:34:59;;;;;;;5.72;5.03;;;27.10;53.10;;;;;;4943376;29;20774;-52
2022/01/04 07:37:30;;;;;;;5.20;4.70;;;27.10;53.00;;;;;;4944788;29;20302;-51
2022/01/04 07:40:02;;;;;;;5.57;5.03;;;27.10;53.50;;;;;;4934487;28;20219;-46
2022/01/04 07:42:32;;;;;;;8.43;6.22;;;26.90;53.70;;;;;;4945802;29;20279;-54
2022/01/04 07:45:03;;;;;;;7.22;5.70;;;26.90;53.90;;;;;;4943015;29;20294;-42
2022/01/04 07:47:34;;;;;;;7.65;5.60;;;26.80;54.10;;;;;;4942435;29;20203;-45
2022/01/04 07:50:05;;;;;;;6.45;5.18;;;26.70;54.00;;;;;;4944158;28;20313;-49
2022/01/04 07:52:35;;;;;;;6.18;5.10;;;26.70;54.10;;;;;;4944833;28;20670;-43
2022/01/04 07:55:09;;;;;;;6.35;5.10;;;26.70;54.10;;;;;;4943277;29;20218;-49
2022/01/04 07:57:42;;;;;;;5.88;5.25;;;26.70;54.10;;;;;;4942559;29;20647;-53
2022/01/04 08:00:13;;;;;;;6.25;5.63;;;26.70;54.20;;;;;;4946783;28;20396;-51
2022/01/04 08:02:44;;;;;;;5.80;5.20;;;26.70;54.20;;;;;;4945165;29;20287;-58
2022/01/04 08:05:15;;;;;;;6.32;5.70;;;26.70;54.20;;;;;;4944008;29;20859;-43
2022/01/04 08:07:45;;;;;;;6.30;5.65;;;26.70;54.20;;;;;;4943009;29;20645;-48
2022/01/04 08:10:18;;;;;;;5.65;5.15;;;26.70;54.20;;;;;;4934032;29;20323;-51
2022/01/04 08:12:49;;;;;;;7.88;6.03;;;26.80;54.20;;;;;;4934900;29;20230;-47
2022/01/04 08:15:19;;;;;;;6.25;5.75;;;26.70;54.20;;;;;;4942534;29;20207;-54
2022/01/04 08:17:50;;;;;;;6.22;5.72;;;26.80;54.20;;;;;;4942748;29;20294;-52
2022/01/04 08:20:20;;;;;;;6.25;5.65;;;26.80;54.20;;;;;;4942762;28;20325;-45
2022/01/04 08:22:51;;;;;;;6.65;5.95;;;26.80;54.10;;;;;;4941103;29;20289;-49
2022/01/04 08:25:23;;;;;;;7.78;5.75;;;26.80;54.10;;;;;;4945996;29;20285;-45
2022/01/04 08:27:54;;;;;;;6.38;5.78;;;26.80;54.00;;;;;;4945007;29;20281;-56
2022/01/04 08:30:24;;;;;;;7.20;6.18;;;26.80;53.90;;;;;;4943934;28;20943;-46
2022/01/04 08:32:55;;;;;;;6.47;5.93;;;26.80;53.80;;;;;;4940334;29;20331;-46
2022/01/04 08:35:25;;;;;;;6.53;5.88;;;26.80;53.80;;;;;;4940880;29;20285;-46
2022/01/04 08:37:56;;;;;;;5.70;5.20;;;26.90;53.80;;;;;;4960400;28;20288;-46
2022/01/04 08:40:28;;;;;;;6.72;6.07;;;26.90;53.80;;;;;;4980885;28;20316;-57
2022/01/04 08:42:59;;;;;;;6.57;5.78;;;26.90;53.80;;;;;;4970267;28;20288;-54
2022/01/04 08:45:29;;;;;;;7.07;5.82;;;26.90;53.70;;;;;;4983706;28;20650;-51
2022/01/04 08:48:00;;;;;;;6.13;5.53;;;26.90;53.70;;;;;;4983508;28;20284;-53
2022/01/04 08:50:30;;;;;;;6.13;5.53;;;26.90;53.80;;;;;;4978441;28;20221;-47
2022/01/04 08:53:01;;;;;;;5.78;5.28;;;26.90;53.70;;;;;;4982117;28;20682;-42
2022/01/04 08:55:33;;;;;;;6.22;5.63;;;26.90;53.80;;;;;;4980062;28;20632;-43
2022/01/04 08:58:04;;;;;;;6.35;5.75;;;26.90;53.70;;;;;;4981147;28;20293;-46
2022/01/04 09:00:35;;;;;;;5.38;4.97;;;26.90;53.70;;;;;;4982099;28;20320;-51
2022/01/04 09:03:06;;;;;;;5.63;5.22;;;26.90;53.70;;;;;;4982043;28;20197;-43
2022/01/04 09:05:37;;;;;;;7.82;6.20;;;26.90;53.70;;;;;;4981671;28;20289;-43
2022/01/04 09:08:07;;;;;;;5.90;5.40;;;26.90;53.60;;;;;;4982220;28;20204;-41
2022/01/04 09:10:40;;;;;;;7.07;5.60;;;26.90;53.60;;;;;;4978010;28;20300;-44
2022/01/04 09:13:14;;;;;;;6.82;6.22;;;26.90;53.60;;;;;;4981562;28;20198;-55
2022/01/04 09:18:43;;;;;;;6.05;5.55;;;26.90;53.60;;;;;;4981759;28;20664;-44
2022/01/04 09:18:44;;;;;;;6.65;5.95;;;26.90;53.50;;;;;;4984849;28;20197;-48
2022/01/04 09:21:15;;;;;;;6.20;5.70;;;26.90;53.50;;;;;;4980210;28;20278;-50
2022/01/04 09:23:47;;;;;;;6.38;5.88;;;26.90;54.00;;;;;;4981612;28;20695;-42
2022/01/04 09:26:21;;;;;;;6.65;5.85;;;26.90;53.50;;;;;;4983702;28;20284;-43
2022/01/04 09:28:51;;;;;;;6.30;5.80;;;26.90;53.50;;;;;;4981780;28;20289;-42
2022/01/04 09:31:24;;;;;;;6.55;5.95;;;26.90;53.50;;;;;;4980969;28;20308;-39
2022/01/04 09:33:55;;;;;;;6.53;6.00;;;26.80;53.30;;;;;;4984138;28;20198;-48
2022/01/04 09:36:25;;;;;;;6.72;6.00;;;26.90;53.40;;;;;;4982672;28;20760;-58
2022/01/04 09:38:56;;;;;;;6.07;5.50;;;26.80;53.30;;;;;;4980813;28;20293;-46
2022/01/04 09:41:29;;;;;;;6.80;6.18;;;26.90;53.30;;;;;;4983808;28;20317;-39
2022/01/04 09:44:00;;;;;;;6.20;5.68;;;26.90;53.30;;;;;;5025179;28;20318;-55
2022/01/04 09:46:30;;;;;;;6.60;6.05;;;26.80;53.30;;;;;;5024303;28;20302;-44
2022/01/04 09:49:00;;;;;;;6.20;5.70;;;26.90;53.30;;;;;;5024598;28;20601;-48
2022/01/04 09:51:32;;;;;;;6.22;5.70;;;26.80;53.30;;;;;;5024948;28;20295;-39
2022/01/04 09:54:03;;;;;;;6.10;5.57;;;26.80;53.30;;;;;;5023997;28;20209;-47
2022/01/04 09:56:35;;;;;;;6.68;5.75;;;26.80;53.30;;;;;;5025336;28;20239;-55
2022/01/04 09:59:06;;;;;;;5.78;5.20;;;26.80;53.30;;;;;;5026464;28;20283;-40
2022/01/04 10:01:39;;;;;;;5.75;5.25;;;26.80;53.30;;;;;;5027354;28;20274;-44
2022/01/04 10:04:10;;;;;;;6.60;6.07;;;26.80;53.50;;;;;;5024841;28;20291;-48
2022/01/04 10:06:41;;;;;;;6.53;6.03;;;26.70;53.30;;;;;;5024516;28;20279;-42
2022/01/04 10:09:13;;;;;;;6.03;5.53;;;26.70;53.30;;;;;;5024509;28;20206;-39
2022/01/04 10:11:47;;;;;;;6.68;6.13;;;26.70;53.30;;;;;;5023101;28;20747;-39
2022/01/04 10:14:29;;;;;;;6.32;5.80;;;26.70;53.30;;;;;;5022978;28;20246;-51
2022/01/04 10:17:01;;;;;;;6.38;5.88;;;26.70;53.30;;;;;;5027013;28;20231;-39
2022/01/04 10:19:33;;;;;;;6.20;5.70;;;26.70;53.30;;;;;;5028119;28;20200;-44
2022/01/04 10:22:19;;;;;;;6.13;5.55;;;26.70;53.30;;;;;;5028990;28;20323;-51
2022/01/04 10:24:52;;;;;;;6.18;5.68;;;26.70;53.30;;;;;;5027802;28;20276;-48
2022/01/04 10:27:31;;;;;;;5.30;4.90;;;26.70;53.30;;;;;;5029264;28;20300;-39
2022/01/04 10:30:27;;;;;;;6.03;5.53;;;26.60;53.20;;;;;;5026208;28;20288;-52
2022/01/04 10:33:00;;;;;;;5.60;5.20;;;26.60;53.30;;;;;;5029004;28;20236;-40
2022/01/04 10:35:37;;;;;;;6.70;6.03;;;26.60;53.20;;;;;;5028982;28;20876;-39
2022/01/04 10:38:17;;;;;;;5.93;5.43;;;26.60;53.30;;;;;;5027372;28;20250;-55
2022/01/04 10:40:50;;;;;;;6.50;5.90;;;26.60;53.30;;;;;;5026801;28;20657;-52
2022/01/04 10:43:23;;;;;;;6.18;5.60;;;26.60;53.20;;;;;;5027465;28;20711;-45
2022/01/04 10:45:54;;;;;;;6.13;5.63;;;26.50;53.10;;;;;;5028007;28;20837;-50
2022/01/04 10:48:26;;;;;;;6.05;5.55;;;26.60;53.20;;;;;;5028513;28;20630;-38
2022/01/04 10:50:58;;;;;;;6.20;5.68;;;26.50;53.20;;;;;;5026760;28;20306;-42
2022/01/04 10:53:30;;;;;;;5.10;4.70;;;26.50;53.10;;;;;;5024542;28;20193;-42
2022/01/04 10:56:03;;;;;;;5.70;5.20;;;26.50;53.10;;;;;;5026761;28;20280;-39
2022/01/04 10:58:37;;;;;;;5.47;5.07;;;26.50;53.20;;;;;;5028947;28;20287;-39
2022/01/04 11:01:10;;;;;;;5.80;5.40;;;26.50;53.20;;;;;;5029162;28;20306;-39
2022/01/04 11:03:44;;;;;;;5.70;5.30;;;26.50;53.20;;;;;;5027655;28;20259;-39
2022/01/04 11:06:16;;;;;;;4.97;4.57;;;26.40;53.10;;;;;;5025702;28;20384;-42
2022/01/04 11:08:47;;;;;;;5.57;5.10;;;26.40;53.10;;;;;;5024010;28;20642;-43
2022/01/04 11:11:17;;;;;;;5.65;5.18;;;26.40;53.10;;;;;;5025245;28;20346;-52
2022/01/04 11:13:51;;;;;;;5.72;5.20;;;26.40;53.10;;;;;;5026187;28;20287;-43
2022/01/04 11:16:23;;;;;;;5.25;4.85;;;26.40;53.10;;;;;;5026176;28;20196;-45
2022/01/04 11:18:54;;;;;;;5.72;5.32;;;26.40;53.10;;;;;;5026111;28;20283;-42
2022/01/04 11:21:26;;;;;;;5.53;5.13;;;26.40;53.10;;;;;;5028085;28;20234;-48
2022/01/04 11:23:57;;;;;;;5.05;4.65;;;26.40;53.10;;;;;;5028226;28;20283;-59
2022/01/04 11:26:28;;;;;;;5.38;4.97;;;26.40;53.10;;;;;;5028010;28;20200;-51
2022/01/04 11:29:01;;;;;;;5.32;4.82;;;26.30;53.10;;;;;;5026363;28;20284;-46
2022/01/04 11:32:02;;;;;;;5.13;4.63;;;26.30;53.20;;;;;;5024839;28;20299;-56
2022/01/04 11:34:52;;;;;;;5.00;4.60;;;26.30;53.20;;;;;;4964825;28;21570;-59
2022/01/04 11:37:23;;;;;;;4.82;4.53;;;26.30;53.00;;;;;;5021661;28;20279;-51
2022/01/04 11:39:54;;;;;;;4.93;4.53;;;26.30;53.10;;;;;;5023933;28;20287;-42
2022/01/04 11:42:41;;;;;;;5.35;4.95;;;26.20;53.10;;;;;;5021547;28;20337;-43
2022/01/04 11:45:16;;;;;;;4.90;4.50;;;26.20;53.10;;;;;;5026190;28;20235;-39
2022/01/04 11:47:50;;;;;;;5.35;4.95;;;26.20;53.20;;;;;;5024370;28;20588;-46
2022/01/04 11:50:24;;;;;;;5.05;4.65;;;26.20;53.10;;;;;;5024841;28;20251;-47
2022/01/04 11:52:55;;;;;;;5.10;4.70;;;26.20;53.10;;;;;;5027842;28;20200;-41
2022/01/04 11:55:29;;;;;;;4.88;4.47;;;26.10;53.10;;;;;;5026725;28;20278;-49
2022/01/04 11:58:01;;;;;;;4.75;4.35;;;26.10;53.10;;;;;;5026461;28;20247;-43
2022/01/04 12:00:38;;;;;;;4.80;4.50;;;26.10;53.10;;;;;;5026202;28;20686;-42
2022/01/04 12:03:11;;;;;;;5.13;4.72;;;26.10;53.10;;;;;;5027807;28;20683;-39
2022/01/04 12:05:42;;;;;;;4.50;4.20;;;26.10;53.10;;;;;;5024322;28;20641;-45
2022/01/04 12:08:23;;;;;;;4.88;4.47;;;26.10;53.10;;;;;;5026079;28;20720;-39
2022/01/04 12:10:56;;;;;;;4.78;4.40;;;26.00;53.10;;;;;;5025665;28;20227;-42
2022/01/04 12:13:28;;;;;;;4.82;4.43;;;26.00;53.10;;;;;;5025570;28;20224;-39
2022/01/04 12:16:08;;;;;;;4.47;4.13;;;26.00;53.20;;;;;;5024530;28;20279;-42
2022/01/04 12:19:05;;;;;;;4.18;3.88;;;26.00;53.20;;;;;;5026266;28;20202;-52
2022/01/04 12:21:42;;;;;;;5.10;4.70;;;26.00;53.20;;;;;;5026770;28;20227;-42
2022/01/04 12:24:17;;;;;;;4.50;4.10;;;26.00;53.10;;;;;;5025996;28;20324;-42
2022/01/04 12:26:48;;;;;;;4.30;4.00;;;26.00;53.20;;;;;;5024063;28;20207;-55
2022/01/04 12:29:33;;;;;;;4.47;4.07;;;25.90;53.20;;;;;;5026448;28;20228;-42
2022/01/04 12:32:08;;;;;;;4.65;4.20;;;25.90;53.20;;;;;;5026274;28;20228;-42
2022/01/04 12:34:53;;;;;;;4.43;4.13;;;25.90;53.20;;;;;;5027279;28;20254;-45
2022/01/04 12:37:23;;;;;;;4.78;4.38;;;25.80;53.10;;;;;;5027056;28;20204;-40
2022/01/04 12:39:58;;;;;;;4.82;4.43;;;25.80;53.20;;;;;;5025351;28;20287;-39
2022/01/04 12:42:28;;;;;;;4.00;3.70;;;25.80;53.10;;;;;;5025747;28;21110;-42
2022/01/04 12:45:00;;;;;;;4.45;4.15;;;25.80;53.10;;;;;;5025829;28;20224;-39
2022/01/04 12:47:32;;;;;;;4.35;4.05;;;25.80;53.10;;;;;;5024948;28;20629;-41
2022/01/04 12:50:05;;;;;;;4.38;4.07;;;25.80;53.10;;;;;;5026036;28;20619;-39
2022/01/04 12:52:36;;;;;;;4.30;4.00;;;25.80;53.10;;;;;;5024785;28;20253;-39
2022/01/04 12:55:13;;;;;;;4.72;4.32;;;25.80;53.10;;;;;;5024581;28;20294;-39
2022/01/04 12:57:44;;;;;;;4.40;4.10;;;25.70;53.20;;;;;;5027651;28;20290;-41
2022/01/04 13:00:16;;;;;;;4.43;4.03;;;25.70;53.20;;;;;;5026399;28;20227;-48
2022/01/04 13:02:49;;;;;;;4.10;3.80;;;25.70;53.10;;;;;;5020716;28;20586;-46
2022/01/04 13:05:20;;;;;;;4.07;3.78;;;25.70;53.00;;;;;;5021668;28;20291;-41
2022/01/04 13:07:50;;;;;;;3.92;3.63;;;25.70;53.20;;;;;;5024843;28;20672;-41
2022/01/04 13:10:26;;;;;;;4.38;4.07;;;25.70;53.40;;;;;;5023064;28;20251;-51
2022/01/04 13:12:57;;;;;;;4.60;4.30;;;25.70;53.80;;;;;;5023986;28;20200;-45
2022/01/04 13:15:27;;;;;;;4.50;4.10;;;25.70;53.80;;;;;;5026626;28;20279;-40
2022/01/04 13:18:00;;;;;;;4.45;4.05;;;25.70;53.70;;;;;;5024975;28;20649;-39
2022/01/04 13:20:34;;;;;;;4.68;4.00;;;25.70;53.70;;;;;;5022627;28;20212;-38